sensor_id;sensor_type;location;lat;lon;timestamp;pressure;altitude;pressure_sealevel;temperature;humidity
53619;BME280;68717;53.040;18.488;2023-07-31T00:00:12;100618.44;;;19.63;100.00
53619;BME280;68717;53.040;18.488;2023-07-31T00:00:44;100614.91;;;19.62;100.00
53619;BME280;68717;53.040;18.488;2023-07-31T00:01:13;100612.19;;;19.62;100.00
53619;BME280;68717;53.040;18.488;2023-07-31T00:01:25;100611.34;;;19.62;100.00
53619;BME280;68717;53.040;18.488;2023-07-31T00:01:39;100611.34;;;19.62;100.00
53619;BME280;68717;53.040;18.488;2023-07-31T00:01:52;100614.06;;;19.62;100.00
53619;BME280;68717;53.040;18.488;2023-07-31T00:02:05;100614.06;;;19.62;100.00
53619;BME280;68717;53.040;18.488;2023-07-31T00:02:17;100609.63;;;19.61;100.00
53619;BME280;68717;53.040;18.488;2023-07-31T00:02:30;100612.34;;;19.61;100.00
53619;BME280;68717;53.040;18.488;2023-07-31T00:02:43;100607.75;;;19.61;100.00
53619;BME280;68717;53.040;18.488;2023-07-31T00:02:55;100605.25;;;19.60;100.00
53619;BME280;68717;53.040;18.488;2023-07-31T00:03:10;100611.34;;;19.62;100.00
53619;BME280;68717;53.040;18.488;2023-07-31T00:03:23;100611.53;;;19.60;100.00
53619;BME280;68717;53.040;18.488;2023-07-31T00:03:35;100612.34;;;19.61;100.00
53619;BME280;68717;53.040;18.488;2023-07-31T00:03:49;100610.69;;;19.60;100.00
53619;BME280;68717;53.040;18.488;2023-07-31T00:04:02;100615.91;;;19.61;100.00
53619;BME280;68717;53.040;18.488;2023-07-31T00:04:15;100610.69;;;19.60;100.00
53619;BME280;68717;53.040;18.488;2023-07-31T00:04:28;100612.34;;;19.61;100.00
53619;BME280;68717;53.040;18.488;2023-07-31T00:04:41;100617.78;;;19.61;100.00
53619;BME280;68717;53.040;18.488;2023-07-31T00:04:53;100610.69;;;19.60;100.00
53619;BME280;68717;53.040;18.488;2023-07-31T00:05:07;100610.69;;;19.60;100.00
53619;BME280;68717;53.040;18.488;2023-07-31T00:05:21;100616.13;;;19.60;100.00
53619;BME280;68717;53.040;18.488;2023-07-31T00:05:34;100613.41;;;19.60;100.00
53619;BME280;68717;53.040;18.488;2023-07-31T00:05:46;100614.44;;;19.59;100.00
53619;BME280;68717;53.040;18.488;2023-07-31T00:05:59;100621.56;;;19.60;100.00
53619;BME280;68717;53.040;18.488;2023-07-31T00:06:12;100606.28;;;19.59;100.00
53619;BME280;68717;53.040;18.488;2023-07-31T00:06:25;100609.00;;;19.59;100.00
53619;BME280;68717;53.040;18.488;2023-07-31T00:06:37;100615.47;;;19.58;100.00
53619;BME280;68717;53.040;18.488;2023-07-31T00:06:50;100614.44;;;19.59;100.00
53619;BME280;68717;53.040;18.488;2023-07-31T00:07:03;100612.75;;;19.58;100.00
53619;BME280;68717;53.040;18.488;2023-07-31T00:07:18;100612.75;;;19.58;100.00
53619;BME280;68717;53.040;18.488;2023-07-31T00:07:32;100614.63;;;19.57;100.00
53619;BME280;68717;53.040;18.488;2023-07-31T00:07:44;100612.75;;;19.58;100.00
53619;BME280;68717;53.040;18.488;2023-07-31T00:07:57;100611.91;;;19.57;100.00
53619;BME280;68717;53.040;18.488;2023-07-31T00:08:11;100618.19;;;19.58;100.00
53619;BME280;68717;53.040;18.488;2023-07-31T00:08:24;100615.47;;;19.58;100.00
53619;BME280;68717;53.040;18.488;2023-07-31T00:08:36;100615.47;;;19.58;100.00
53619;BME280;68717;53.040;18.488;2023-07-31T00:08:49;100615.47;;;19.58;100.00
53619;BME280;68717;53.040;18.488;2023-07-31T00:09:02;100612.75;;;19.58;100.00
53619;BME280;68717;53.040;18.488;2023-07-31T00:09:15;100617.34;;;19.57;100.00
53619;BME280;68717;53.040;18.488;2023-07-31T00:09:28;100618.19;;;19.58;100.00
53619;BME280;68717;53.040;18.488;2023-07-31T00:09:40;100620.06;;;19.57;100.00
53619;BME280;68717;53.040;18.488;2023-07-31T00:09:53;100625.50;;;19.57;100.00
53619;BME280;68717;53.040;18.488;2023-07-31T00:10:07;100621.94;;;19.57;100.00
53619;BME280;68717;53.040;18.488;2023-07-31T00:10:19;100621.94;;;19.57;100.00
53619;BME280;68717;53.040;18.488;2023-07-31T00:10:32;100620.28;;;19.56;100.00
53619;BME280;68717;53.040;18.488;2023-07-31T00:10:46;100617.56;;;19.56;100.00
53619;BME280;68717;53.040;18.488;2023-07-31T00:10:58;100629.25;;;19.56;100.00
53619;BME280;68717;53.040;18.488;2023-07-31T00:11:11;100625.72;;;19.56;100.00
53619;BME280;68717;53.040;18.488;2023-07-31T00:11:23;100631.16;;;19.56;100.00
53619;BME280;68717;53.040;18.488;2023-07-31T00:11:38;100631.97;;;19.56;100.00
53619;BME280;68717;53.040;18.488;2023-07-31T00:11:50;100626.53;;;19.56;100.00
53619;BME280;68717;53.040;18.488;2023-07-31T00:12:04;100631.16;;;19.56;100.00
53619;BME280;68717;53.040;18.488;2023-07-31T00:12:16;100629.25;;;19.56;100.00
53619;BME280;68717;53.040;18.488;2023-07-31T00:12:29;100628.44;;;19.56;100.00
53619;BME280;68717;53.040;18.488;2023-07-31T00:12:44;100631.16;;;19.56;100.00
53619;BME280;68717;53.040;18.488;2023-07-31T00:12:57;100637.41;;;19.56;100.00
53619;BME280;68717;53.040;18.488;2023-07-31T00:13:10;100626.72;;;19.55;100.00
53619;BME280;68717;53.040;18.488;2023-07-31T00:13:24;100631.16;;;19.56;100.00
53619;BME280;68717;53.040;18.488;2023-07-31T00:13:37;100624.00;;;19.55;100.00
53619;BME280;68717;53.040;18.488;2023-07-31T00:13:50;100630.28;;;19.55;100.00
53619;BME280;68717;53.040;18.488;2023-07-31T00:14:02;100631.16;;;19.56;100.00
53619;BME280;68717;53.040;18.488;2023-07-31T00:14:15;100629.44;;;19.55;100.00
53619;BME280;68717;53.040;18.488;2023-07-31T00:14:27;100629.44;;;19.55;100.00
53619;BME280;68717;53.040;18.488;2023-07-31T00:14:40;100625.06;;;19.54;100.00
53619;BME280;68717;53.040;18.488;2023-07-31T00:14:54;100632.16;;;19.55;100.00
53619;BME280;68717;53.040;18.488;2023-07-31T00:15:07;100631.34;;;19.54;100.00
53619;BME280;68717;53.040;18.488;2023-07-31T00:15:20;100636.59;;;19.56;100.00
53619;BME280;68717;53.040;18.488;2023-07-31T00:15:32;100631.50;;;19.53;100.00
53619;BME280;68717;53.040;18.488;2023-07-31T00:15:45;100631.34;;;19.54;100.00
53619;BME280;68717;53.040;18.488;2023-07-31T00:15:58;100631.50;;;19.53;100.00
53619;BME280;68717;53.040;18.488;2023-07-31T00:16:12;100635.09;;;19.53;100.00
53619;BME280;68717;53.040;18.488;2023-07-31T00:16:25;100629.84;;;19.52;100.00
53619;BME280;68717;53.040;18.488;2023-07-31T00:16:39;100629.84;;;19.52;100.00
53619;BME280;68717;53.040;18.488;2023-07-31T00:16:52;100632.56;;;19.52;100.00
53619;BME280;68717;53.040;18.488;2023-07-31T00:17:05;100635.28;;;19.52;100.00
53619;BME280;68717;53.040;18.488;2023-07-31T00:17:17;100634.44;;;19.51;100.00
53619;BME280;68717;53.040;18.488;2023-07-31T00:17:30;100635.47;;;19.50;100.00
53619;BME280;68717;53.040;18.488;2023-07-31T00:17:43;100630.88;;;19.50;100.00
53619;BME280;68717;53.040;18.488;2023-07-31T00:17:55;100632.75;;;19.50;100.00
53619;BME280;68717;53.040;18.488;2023-07-31T00:18:08;100632.75;;;19.50;100.00
53619;BME280;68717;53.040;18.488;2023-07-31T00:18:21;100631.91;;;19.49;100.00
53619;BME280;68717;53.040;18.488;2023-07-31T00:18:33;100631.09;;;19.49;100.00
53619;BME280;68717;53.040;18.488;2023-07-31T00:18:46;100632.94;;;19.48;100.00
53619;BME280;68717;53.040;18.488;2023-07-31T00:19:00;100635.66;;;19.48;100.00
53619;BME280;68717;53.040;18.488;2023-07-31T00:19:12;100634.81;;;19.48;100.00
53619;BME280;68717;53.040;18.488;2023-07-31T00:19:25;100644.84;;;19.47;100.00
53619;BME280;68717;53.040;18.488;2023-07-31T00:19:37;100634.00;;;19.47;100.00
53619;BME280;68717;53.040;18.488;2023-07-31T00:19:50;100639.44;;;19.47;100.00
53619;BME280;68717;53.040;18.488;2023-07-31T00:20:04;100639.44;;;19.47;100.00
53619;BME280;68717;53.040;18.488;2023-07-31T00:20:16;100635.00;;;19.46;100.00
53619;BME280;68717;53.040;18.488;2023-07-31T00:20:29;100635.88;;;19.47;100.00
53619;BME280;68717;53.040;18.488;2023-07-31T00:20:42;100635.00;;;19.46;100.00
53619;BME280;68717;53.040;18.488;2023-07-31T00:20:55;100639.44;;;19.47;100.00
53619;BME280;68717;53.040;18.488;2023-07-31T00:21:08;100643.16;;;19.46;100.00
53619;BME280;68717;53.040;18.488;2023-07-31T00:21:20;100636.88;;;19.46;100.00
53619;BME280;68717;53.040;18.488;2023-07-31T00:21:33;100637.72;;;19.46;100.00
53619;BME280;68717;53.040;18.488;2023-07-31T00:21:45;100639.44;;;19.47;100.00
53619;BME280;68717;53.040;18.488;2023-07-31T00:21:58;100642.16;;;19.47;100.00
53619;BME280;68717;53.040;18.488;2023-07-31T00:22:11;100634.00;;;19.47;100.00
53619;BME280;68717;53.040;18.488;2023-07-31T00:22:23;100643.16;;;19.46;100.00
53619;BME280;68717;53.040;18.488;2023-07-31T00:22:37;100648.59;;;19.46;100.00
53619;BME280;68717;53.040;18.488;2023-07-31T00:22:49;100645.88;;;19.46;100.00
53619;BME280;68717;53.040;18.488;2023-07-31T00:23:02;100638.78;;;19.45;100.00
53619;BME280;68717;53.040;18.488;2023-07-31T00:23:15;100635.22;;;19.45;100.00
53619;BME280;68717;53.040;18.488;2023-07-31T00:23:27;100639.59;;;19.46;100.00
53619;BME280;68717;53.040;18.488;2023-07-31T00:23:40;100634.38;;;19.44;100.00
53619;BME280;68717;53.040;18.488;2023-07-31T00:23:53;100638.78;;;19.45;100.00
53619;BME280;68717;53.040;18.488;2023-07-31T00:24:06;100644.22;;;19.45;100.00
53619;BME280;68717;53.040;18.488;2023-07-31T00:24:19;100639.81;;;19.44;100.00
53619;BME280;68717;53.040;18.488;2023-07-31T00:24:32;100640.66;;;19.45;100.00
53619;BME280;68717;53.040;18.488;2023-07-31T00:24:44;100642.53;;;19.44;100.00
53619;BME280;68717;53.040;18.488;2023-07-31T00:24:57;100633.53;;;19.44;100.00
53619;BME280;68717;53.040;18.488;2023-07-31T00:25:10;100639.81;;;19.44;100.00
53619;BME280;68717;53.040;18.488;2023-07-31T00:25:22;100643.56;;;19.43;100.00
53619;BME280;68717;53.040;18.488;2023-07-31T00:25:35;100641.69;;;19.44;100.00
53619;BME280;68717;53.040;18.488;2023-07-31T00:25:48;100635.41;;;19.43;100.00
53619;BME280;68717;53.040;18.488;2023-07-31T00:26:00;100632.69;;;19.43;100.00
53619;BME280;68717;53.040;18.488;2023-07-31T00:26:14;100635.41;;;19.43;100.00
53619;BME280;68717;53.040;18.488;2023-07-31T00:26:27;100649.00;;;19.43;100.00
53619;BME280;68717;53.040;18.488;2023-07-31T00:26:39;100641.91;;;19.42;100.00
53619;BME280;68717;53.040;18.488;2023-07-31T00:26:52;100641.03;;;19.42;100.00
53619;BME280;68717;53.040;18.488;2023-07-31T00:27:05;100636.47;;;19.42;100.00
53619;BME280;68717;53.040;18.488;2023-07-31T00:27:18;100641.03;;;19.42;100.00
53619;BME280;68717;53.040;18.488;2023-07-31T00:27:31;100639.19;;;19.42;100.00
53619;BME280;68717;53.040;18.488;2023-07-31T00:27:43;100637.47;;;19.41;100.00
53619;BME280;68717;53.040;18.488;2023-07-31T00:27:58;100640.19;;;19.41;100.00
53619;BME280;68717;53.040;18.488;2023-07-31T00:28:10;100633.91;;;19.41;100.00
53619;BME280;68717;53.040;18.488;2023-07-31T00:28:24;100643.97;;;19.40;100.00
53619;BME280;68717;53.040;18.488;2023-07-31T00:28:37;100636.63;;;19.41;100.00
53619;BME280;68717;53.040;18.488;2023-07-31T00:28:49;100637.47;;;19.41;100.00
53619;BME280;68717;53.040;18.488;2023-07-31T00:29:02;100637.47;;;19.41;100.00
53619;BME280;68717;53.040;18.488;2023-07-31T00:29:15;100630.16;;;19.42;100.00
53619;BME280;68717;53.040;18.488;2023-07-31T00:29:27;100642.91;;;19.41;100.00
53619;BME280;68717;53.040;18.488;2023-07-31T00:29:40;100634.75;;;19.41;100.00
53619;BME280;68717;53.040;18.488;2023-07-31T00:29:53;100638.31;;;19.42;100.00
53619;BME280;68717;53.040;18.488;2023-07-31T00:30:06;100633.75;;;19.42;100.00
53619;BME280;68717;53.040;18.488;2023-07-31T00:30:20;100631.03;;;19.42;100.00
53619;BME280;68717;53.040;18.488;2023-07-31T00:30:33;100631.03;;;19.42;100.00
53619;BME280;68717;53.040;18.488;2023-07-31T00:30:46;100640.19;;;19.41;100.00
53619;BME280;68717;53.040;18.488;2023-07-31T00:30:58;100633.75;;;19.42;100.00
53619;BME280;68717;53.040;18.488;2023-07-31T00:31:12;100633.53;;;19.44;100.00
53619;BME280;68717;53.040;18.488;2023-07-31T00:31:26;100636.47;;;19.42;100.00
53619;BME280;68717;53.040;18.488;2023-07-31T00:31:39;100635.41;;;19.43;100.00
53619;BME280;68717;53.040;18.488;2023-07-31T00:31:51;100637.47;;;19.41;100.00
53619;BME280;68717;53.040;18.488;2023-07-31T00:32:05;100638.31;;;19.42;100.00
53619;BME280;68717;53.040;18.488;2023-07-31T00:32:18;100635.59;;;19.42;100.00
53619;BME280;68717;53.040;18.488;2023-07-31T00:32:32;100638.13;;;19.43;100.00
53619;BME280;68717;53.040;18.488;2023-07-31T00:32:44;100634.56;;;19.43;100.00
53619;BME280;68717;53.040;18.488;2023-07-31T00:32:57;100640.00;;;19.43;100.00
53619;BME280;68717;53.040;18.488;2023-07-31T00:33:10;100631.03;;;19.42;100.00
53619;BME280;68717;53.040;18.488;2023-07-31T00:33:22;100638.13;;;19.43;100.00
53619;BME280;68717;53.040;18.488;2023-07-31T00:33:35;100640.84;;;19.43;100.00
53619;BME280;68717;53.040;18.488;2023-07-31T00:33:48;100635.41;;;19.43;100.00
53619;BME280;68717;53.040;18.488;2023-07-31T00:34:01;100644.41;;;19.44;100.00
53619;BME280;68717;53.040;18.488;2023-07-31T00:34:13;100633.53;;;19.44;100.00
53619;BME280;68717;53.040;18.488;2023-07-31T00:34:27;100643.56;;;19.43;100.00
53619;BME280;68717;53.040;18.488;2023-07-31T00:34:39;100638.13;;;19.43;100.00
53619;BME280;68717;53.040;18.488;2023-07-31T00:34:52;100636.25;;;19.44;100.00
53619;BME280;68717;53.040;18.488;2023-07-31T00:35:05;100644.41;;;19.44;100.00
53619;BME280;68717;53.040;18.488;2023-07-31T00:35:18;100641.69;;;19.44;100.00
53619;BME280;68717;53.040;18.488;2023-07-31T00:35:31;100646.09;;;19.45;100.00
53619;BME280;68717;53.040;18.488;2023-07-31T00:35:44;100645.25;;;19.44;100.00
53619;BME280;68717;53.040;18.488;2023-07-31T00:35:56;100646.94;;;19.45;100.00
53619;BME280;68717;53.040;18.488;2023-07-31T00:36:10;100641.50;;;19.45;100.00
53619;BME280;68717;53.040;18.488;2023-07-31T00:36:23;100637.72;;;19.46;100.00
53619;BME280;68717;53.040;18.488;2023-07-31T00:36:35;100646.09;;;19.45;100.00
53619;BME280;68717;53.040;18.488;2023-07-31T00:36:49;100646.09;;;19.45;100.00
53619;BME280;68717;53.040;18.488;2023-07-31T00:37:01;100643.16;;;19.46;100.00
53619;BME280;68717;53.040;18.488;2023-07-31T00:37:14;100644.22;;;19.45;100.00
53619;BME280;68717;53.040;18.488;2023-07-31T00:37:27;100646.09;;;19.45;100.00
53619;BME280;68717;53.040;18.488;2023-07-31T00:37:40;100636.06;;;19.45;100.00
53619;BME280;68717;53.040;18.488;2023-07-31T00:37:52;100646.94;;;19.45;100.00
53619;BME280;68717;53.040;18.488;2023-07-31T00:38:05;100643.56;;;19.43;100.00
53619;BME280;68717;53.040;18.488;2023-07-31T00:38:19;100639.81;;;19.44;100.00
53619;BME280;68717;53.040;18.488;2023-07-31T00:38:31;100643.56;;;19.43;100.00
53619;BME280;68717;53.040;18.488;2023-07-31T00:38:44;100646.28;;;19.43;100.00
53619;BME280;68717;53.040;18.488;2023-07-31T00:38:57;100644.59;;;19.42;100.00
53619;BME280;68717;53.040;18.488;2023-07-31T00:39:09;100639.19;;;19.42;100.00
53619;BME280;68717;53.040;18.488;2023-07-31T00:39:22;100645.63;;;19.41;100.00
53619;BME280;68717;53.040;18.488;2023-07-31T00:39:35;100638.31;;;19.42;100.00
53619;BME280;68717;53.040;18.488;2023-07-31T00:39:49;100648.34;;;19.41;100.00
53619;BME280;68717;53.040;18.488;2023-07-31T00:40:02;100640.19;;;19.41;100.00
53619;BME280;68717;53.040;18.488;2023-07-31T00:40:16;100638.53;;;19.40;100.00
53619;BME280;68717;53.040;18.488;2023-07-31T00:40:29;100643.97;;;19.40;100.00
53619;BME280;68717;53.040;18.488;2023-07-31T00:40:41;100644.97;;;19.39;100.00
53619;BME280;68717;53.040;18.488;2023-07-31T00:40:54;100643.09;;;19.40;100.00
53619;BME280;68717;53.040;18.488;2023-07-31T00:41:06;100633.09;;;19.40;100.00
53619;BME280;68717;53.040;18.488;2023-07-31T00:41:20;100638.53;;;19.40;100.00
53619;BME280;68717;53.040;18.488;2023-07-31T00:41:33;100640.38;;;19.40;100.00
53619;BME280;68717;53.040;18.488;2023-07-31T00:41:45;100633.91;;;19.41;100.00
53619;BME280;68717;53.040;18.488;2023-07-31T00:41:58;100631.38;;;19.39;100.00
53619;BME280;68717;53.040;18.488;2023-07-31T00:42:10;100640.38;;;19.40;100.00
53619;BME280;68717;53.040;18.488;2023-07-31T00:42:24;100636.81;;;19.39;100.00
53619;BME280;68717;53.040;18.488;2023-07-31T00:42:37;100636.81;;;19.39;100.00
53619;BME280;68717;53.040;18.488;2023-07-31T00:42:50;100644.97;;;19.39;100.00
53619;BME280;68717;53.040;18.488;2023-07-31T00:43:03;100636.81;;;19.39;100.00
53619;BME280;68717;53.040;18.488;2023-07-31T00:43:16;100637.88;;;19.38;100.00
53619;BME280;68717;53.040;18.488;2023-07-31T00:43:29;100638.72;;;19.39;100.00
53619;BME280;68717;53.040;18.488;2023-07-31T00:43:41;100644.16;;;19.39;100.00
53619;BME280;68717;53.040;18.488;2023-07-31T00:43:54;100637.88;;;19.38;100.00
53619;BME280;68717;53.040;18.488;2023-07-31T00:44:07;100641.44;;;19.39;100.00
53619;BME280;68717;53.040;18.488;2023-07-31T00:44:19;100643.31;;;19.38;100.00
53619;BME280;68717;53.040;18.488;2023-07-31T00:44:32;100638.06;;;19.37;100.00
53619;BME280;68717;53.040;18.488;2023-07-31T00:44:46;100642.44;;;19.38;100.00
53619;BME280;68717;53.040;18.488;2023-07-31T00:44:58;100642.44;;;19.38;100.00
53619;BME280;68717;53.040;18.488;2023-07-31T00:45:11;100634.50;;;19.36;100.00
53619;BME280;68717;53.040;18.488;2023-07-31T00:45:24;100639.94;;;19.36;100.00
53619;BME280;68717;53.040;18.488;2023-07-31T00:45:37;100639.94;;;19.36;100.00
53619;BME280;68717;53.040;18.488;2023-07-31T00:45:50;100642.66;;;19.36;100.00
53619;BME280;68717;53.040;18.488;2023-07-31T00:46:02;100646.41;;;19.35;100.00
53619;BME280;68717;53.040;18.488;2023-07-31T00:46:17;100643.69;;;19.35;100.00
53619;BME280;68717;53.040;18.488;2023-07-31T00:46:30;100646.41;;;19.35;100.00
53619;BME280;68717;53.040;18.488;2023-07-31T00:46:43;100636.56;;;19.34;100.00
53619;BME280;68717;53.040;18.488;2023-07-31T00:46:56;100648.47;;;19.33;100.00
53619;BME280;68717;53.040;18.488;2023-07-31T00:47:11;100642.19;;;19.33;100.00
53619;BME280;68717;53.040;18.488;2023-07-31T00:47:24;100642.19;;;19.33;100.00
53619;BME280;68717;53.040;18.488;2023-07-31T00:47:36;100648.47;;;19.33;100.00
53619;BME280;68717;53.040;18.488;2023-07-31T00:47:50;100652.88;;;19.34;100.00
53619;BME280;68717;53.040;18.488;2023-07-31T00:48:03;100647.63;;;19.33;100.00
53619;BME280;68717;53.040;18.488;2023-07-31T00:48:18;100651.19;;;19.33;100.00
53619;BME280;68717;53.040;18.488;2023-07-31T00:48:31;100647.63;;;19.33;100.00
53619;BME280;68717;53.040;18.488;2023-07-31T00:48:46;100647.81;;;19.31;100.00
53619;BME280;68717;53.040;18.488;2023-07-31T00:48:59;100651.19;;;19.33;100.00
53619;BME280;68717;53.040;18.488;2023-07-31T00:49:12;100644.06;;;19.32;100.00
53619;BME280;68717;53.040;18.488;2023-07-31T00:49:25;100647.63;;;19.33;100.00
53619;BME280;68717;53.040;18.488;2023-07-31T00:49:38;100659.34;;;19.33;100.00
53619;BME280;68717;53.040;18.488;2023-07-31T00:49:51;100648.47;;;19.33;100.00
53619;BME280;68717;53.040;18.488;2023-07-31T00:50:05;100655.78;;;19.33;100.00
53619;BME280;68717;53.040;18.488;2023-07-31T00:50:19;100652.88;;;19.34;100.00
53619;BME280;68717;53.040;18.488;2023-07-31T00:50:32;100649.31;;;19.34;100.00
53619;BME280;68717;53.040;18.488;2023-07-31T00:50:45;100642.19;;;19.33;100.00
53619;BME280;68717;53.040;18.488;2023-07-31T00:50:58;100642.00;;;19.34;100.00
53619;BME280;68717;53.040;18.488;2023-07-31T00:51:11;100648.47;;;19.33;100.00
53619;BME280;68717;53.040;18.488;2023-07-31T00:51:24;100646.59;;;19.34;100.00
53619;BME280;68717;53.040;18.488;2023-07-31T00:51:37;100644.91;;;19.33;100.00
53619;BME280;68717;53.040;18.488;2023-07-31T00:51:49;100644.72;;;19.34;100.00
53619;BME280;68717;53.040;18.488;2023-07-31T00:52:03;100643.69;;;19.35;100.00
53619;BME280;68717;53.040;18.488;2023-07-31T00:52:17;100648.28;;;19.35;100.00
53619;BME280;68717;53.040;18.488;2023-07-31T00:52:30;100641.16;;;19.34;100.00
53619;BME280;68717;53.040;18.488;2023-07-31T00:52:43;100640.31;;;19.33;100.00
53619;BME280;68717;53.040;18.488;2023-07-31T00:52:55;100645.75;;;19.33;100.00
53619;BME280;68717;53.040;18.488;2023-07-31T00:53:08;100642.00;;;19.34;100.00
53619;BME280;68717;53.040;18.488;2023-07-31T00:53:21;100637.59;;;19.33;100.00
53619;BME280;68717;53.040;18.488;2023-07-31T00:53:34;100644.72;;;19.34;100.00
53619;BME280;68717;53.040;18.488;2023-07-31T00:53:47;100643.03;;;19.33;100.00
53619;BME280;68717;53.040;18.488;2023-07-31T00:54:00;100643.88;;;19.34;100.00
53619;BME280;68717;53.040;18.488;2023-07-31T00:54:13;100640.31;;;19.33;100.00
53619;BME280;68717;53.040;18.488;2023-07-31T00:54:26;100634.03;;;19.33;100.00
53619;BME280;68717;53.040;18.488;2023-07-31T00:54:39;100637.59;;;19.33;100.00
53619;BME280;68717;53.040;18.488;2023-07-31T00:54:52;100633.19;;;19.32;100.00
53619;BME280;68717;53.040;18.488;2023-07-31T00:55:05;100644.06;;;19.32;100.00
53619;BME280;68717;53.040;18.488;2023-07-31T00:55:18;100640.53;;;19.32;100.00
53619;BME280;68717;53.040;18.488;2023-07-31T00:55:31;100634.22;;;19.31;100.00
53619;BME280;68717;53.040;18.488;2023-07-31T00:55:44;100637.81;;;19.32;100.00
53619;BME280;68717;53.040;18.488;2023-07-31T00:55:57;100632.56;;;19.30;100.00
53619;BME280;68717;53.040;18.488;2023-07-31T00:56:10;100630.84;;;19.29;100.00
53619;BME280;68717;53.040;18.488;2023-07-31T00:56:24;100636.28;;;19.29;100.00
53619;BME280;68717;53.040;18.488;2023-07-31T00:56:40;100638.00;;;19.30;100.00
53619;BME280;68717;53.040;18.488;2023-07-31T00:56:54;100637.34;;;19.28;100.00
53619;BME280;68717;53.040;18.488;2023-07-31T00:57:07;100642.59;;;19.29;100.00
53619;BME280;68717;53.040;18.488;2023-07-31T00:57:20;100640.88;;;19.28;100.00
53619;BME280;68717;53.040;18.488;2023-07-31T00:57:33;100639.22;;;19.27;100.00
53619;BME280;68717;53.040;18.488;2023-07-31T00:57:49;100641.09;;;19.27;100.00
53619;BME280;68717;53.040;18.488;2023-07-31T00:58:02;100642.94;;;19.26;100.00
53619;BME280;68717;53.040;18.488;2023-07-31T00:58:15;100635.84;;;19.25;100.00
53619;BME280;68717;53.040;18.488;2023-07-31T00:58:28;100635.00;;;19.25;100.00
53619;BME280;68717;53.040;18.488;2023-07-31T00:58:41;100639.59;;;19.24;100.00
53619;BME280;68717;53.040;18.488;2023-07-31T00:58:54;100633.31;;;19.24;100.00
53619;BME280;68717;53.040;18.488;2023-07-31T00:59:07;100630.59;;;19.24;100.00
53619;BME280;68717;53.040;18.488;2023-07-31T00:59:20;100633.31;;;19.24;100.00
53619;BME280;68717;53.040;18.488;2023-07-31T00:59:33;100624.31;;;19.23;100.00
53619;BME280;68717;53.040;18.488;2023-07-31T00:59:45;100628.94;;;19.23;100.00
53619;BME280;68717;53.040;18.488;2023-07-31T00:59:59;100624.50;;;19.22;100.00
53619;BME280;68717;53.040;18.488;2023-07-31T01:00:12;100628.94;;;19.23;100.00
53619;BME280;68717;53.040;18.488;2023-07-31T01:00:24;100627.22;;;19.22;100.00
53619;BME280;68717;53.040;18.488;2023-07-31T01:00:38;100624.69;;;19.20;100.00
53619;BME280;68717;53.040;18.488;2023-07-31T01:00:50;100627.41;;;19.20;100.00
53619;BME280;68717;53.040;18.488;2023-07-31T01:01:03;100631.00;;;19.21;100.00
53619;BME280;68717;53.040;18.488;2023-07-31T01:01:17;100625.75;;;19.19;100.00
53619;BME280;68717;53.040;18.488;2023-07-31T01:01:30;100626.56;;;19.20;100.00
53619;BME280;68717;53.040;18.488;2023-07-31T01:01:43;100626.56;;;19.20;100.00
53619;BME280;68717;53.040;18.488;2023-07-31T01:01:55;100634.72;;;19.20;100.00
53619;BME280;68717;53.040;18.488;2023-07-31T01:02:08;100623.84;;;19.20;100.00
53619;BME280;68717;53.040;18.488;2023-07-31T01:02:21;100624.06;;;19.18;100.00
53619;BME280;68717;53.040;18.488;2023-07-31T01:02:34;100624.91;;;19.19;100.00
53619;BME280;68717;53.040;18.488;2023-07-31T01:02:49;100627.63;;;19.19;100.00
53619;BME280;68717;53.040;18.488;2023-07-31T01:03:03;100624.91;;;19.19;100.00
53619;BME280;68717;53.040;18.488;2023-07-31T01:03:17;100622.19;;;19.19;100.00
53619;BME280;68717;53.040;18.488;2023-07-31T01:03:29;100624.06;;;19.18;100.00
53619;BME280;68717;53.040;18.488;2023-07-31T01:03:42;100618.63;;;19.18;100.00
53619;BME280;68717;53.040;18.488;2023-07-31T01:03:56;100618.63;;;19.18;100.00
53619;BME280;68717;53.040;18.488;2023-07-31T01:04:09;100620.50;;;19.18;100.00
53619;BME280;68717;53.040;18.488;2023-07-31T01:04:24;100621.53;;;19.17;100.00
53619;BME280;68717;53.040;18.488;2023-07-31T01:04:36;100621.53;;;19.17;100.00
53619;BME280;68717;53.040;18.488;2023-07-31T01:04:49;100621.72;;;19.15;100.00
53619;BME280;68717;53.040;18.488;2023-07-31T01:05:03;100617.13;;;19.16;100.00
53619;BME280;68717;53.040;18.488;2023-07-31T01:05:17;100620.88;;;19.15;100.00
53619;BME280;68717;53.040;18.488;2023-07-31T01:05:39;100618.16;;;19.15;100.00
53619;BME280;68717;53.040;18.488;2023-07-31T01:06:01;100617.53;;;19.13;100.00
53619;BME280;68717;53.040;18.488;2023-07-31T01:06:24;100618.34;;;19.13;100.00
53619;BME280;68717;53.040;18.488;2023-07-31T01:06:46;100625.66;;;19.13;100.00
53619;BME280;68717;53.040;18.488;2023-07-31T01:07:08;100614.81;;;19.13;100.00
53619;BME280;68717;53.040;18.488;2023-07-31T01:07:28;100621.91;;;19.14;100.00
53619;BME280;68717;53.040;18.488;2023-07-31T01:07:49;100631.09;;;19.13;100.00
53619;BME280;68717;53.040;18.488;2023-07-31T01:08:12;100625.66;;;19.13;100.00